sensor_id;sensor_type;location;lat;lon;timestamp;pressure;altitude;pressure_sealevel;temperature;humidity
11038;BME280;5572;49.540;11.932;2022-08-25T00:00:43;96586.22;;;15.67;100.00
11038;BME280;5572;49.540;11.932;2022-08-25T00:03:10;96587.31;;;15.92;100.00
11038;BME280;5572;49.540;11.932;2022-08-25T00:05:38;96573.69;;;15.58;100.00
11038;BME280;5572;49.540;11.932;2022-08-25T00:08:05;96555.13;;;15.68;100.00
11038;BME280;5572;49.540;11.932;2022-08-25T00:10:35;96537.94;;;15.85;100.00
11038;BME280;5572;49.540;11.932;2022-08-25T00:13:03;96545.97;;;15.73;100.00
11038;BME280;5572;49.540;11.932;2022-08-25T00:15:31;96534.91;;;15.69;100.00
11038;BME280;5572;49.540;11.932;2022-08-25T00:17:58;96570.00;;;15.79;100.00
11038;BME280;5572;49.540;11.932;2022-08-25T00:20:26;96555.56;;;15.79;100.00
11038;BME280;5572;49.540;11.932;2022-08-25T00:22:53;96599.34;;;15.57;100.00
11038;BME280;5572;49.540;11.932;2022-08-25T00:25:22;96632.19;;;15.52;100.00
11038;BME280;5572;49.540;11.932;2022-08-25T00:27:49;96657.06;;;15.67;100.00
11038;BME280;5572;49.540;11.932;2022-08-25T00:30:17;96690.72;;;15.63;100.00
11038;BME280;5572;49.540;11.932;2022-08-25T00:32:45;96694.84;;;15.52;100.00
11038;BME280;5572;49.540;11.932;2022-08-25T00:35:13;96695.84;;;15.56;100.00
11038;BME280;5572;49.540;11.932;2022-08-25T00:37:40;96686.09;;;15.72;100.00
11038;BME280;5572;49.540;11.932;2022-08-25T00:40:07;96704.78;;;15.48;100.00
11038;BME280;5572;49.540;11.932;2022-08-25T00:42:34;96720.81;;;15.50;100.00
11038;BME280;5572;49.540;11.932;2022-08-25T00:45:04;96757.19;;;15.53;100.00
11038;BME280;5572;49.540;11.932;2022-08-25T00:47:32;96779.94;;;15.49;100.00
11038;BME280;5572;49.540;11.932;2022-08-25T00:50:03;96804.91;;;15.34;100.00
11038;BME280;5572;49.540;11.932;2022-08-25T00:52:36;96802.34;;;15.38;100.00
11038;BME280;5572;49.540;11.932;2022-08-25T00:55:06;96827.75;;;15.25;100.00
11038;BME280;5572;49.540;11.932;2022-08-25T00:57:37;96832.47;;;15.19;100.00
11038;BME280;5572;49.540;11.932;2022-08-25T01:00:14;96856.06;;;15.24;100.00
11038;BME280;5572;49.540;11.932;2022-08-25T01:02:44;96872.94;;;15.26;100.00
11038;BME280;5572;49.540;11.932;2022-08-25T01:05:11;96898.00;;;15.36;100.00
11038;BME280;5572;49.540;11.932;2022-08-25T01:07:38;96911.56;;;15.28;100.00
11038;BME280;5572;49.540;11.932;2022-08-25T01:10:07;96938.00;;;15.27;100.00
11038;BME280;5572;49.540;11.932;2022-08-25T01:12:35;96939.94;;;15.13;100.00
11038;BME280;5572;49.540;11.932;2022-08-25T01:15:05;96952.13;;;15.16;100.00
11038;BME280;5572;49.540;11.932;2022-08-25T01:17:33;96949.81;;;15.09;100.00
11038;BME280;5572;49.540;11.932;2022-08-25T01:20:03;96946.50;;;15.12;100.00
11038;BME280;5572;49.540;11.932;2022-08-25T01:22:31;96961.06;;;14.94;100.00
11038;BME280;5572;49.540;11.932;2022-08-25T01:25:03;96986.84;;;15.10;100.00
11038;BME280;5572;49.540;11.932;2022-08-25T01:27:32;97020.19;;;15.16;100.00
11038;BME280;5572;49.540;11.932;2022-08-25T01:29:59;97032.91;;;15.20;100.00
11038;BME280;5572;49.540;11.932;2022-08-25T01:32:25;97046.78;;;14.97;100.00
11038;BME280;5572;49.540;11.932;2022-08-25T01:34:52;97059.28;;;14.98;100.00
11038;BME280;5572;49.540;11.932;2022-08-25T01:37:19;97084.34;;;15.08;100.00
11038;BME280;5572;49.540;11.932;2022-08-25T01:39:47;97095.25;;;14.95;100.00
11038;BME280;5572;49.540;11.932;2022-08-25T01:42:23;97125.59;;;14.88;100.00
11038;BME280;5572;49.540;11.932;2022-08-25T01:44:54;97075.28;;;14.99;100.00
11038;BME280;5572;49.540;11.932;2022-08-25T01:47:21;97080.38;;;14.79;100.00
11038;BME280;5572;49.540;11.932;2022-08-25T01:49:48;97082.06;;;14.88;100.00
11038;BME280;5572;49.540;11.932;2022-08-25T01:52:16;97109.06;;;14.98;100.00
11038;BME280;5572;49.540;11.932;2022-08-25T01:54:44;97111.09;;;14.93;100.00
11038;BME280;5572;49.540;11.932;2022-08-25T01:57:12;97309.25;;;15.09;100.00
11038;BME280;5572;49.540;11.932;2022-08-25T01:59:39;97307.88;;;15.12;100.00
11038;BME280;5572;49.540;11.932;2022-08-25T02:02:05;97223.59;;;14.88;100.00
11038;BME280;5572;49.540;11.932;2022-08-25T02:04:32;97184.72;;;15.01;100.00
11038;BME280;5572;49.540;11.932;2022-08-25T02:06:59;97164.81;;;14.87;100.00
11038;BME280;5572;49.540;11.932;2022-08-25T02:09:26;97112.81;;;14.89;100.00
11038;BME280;5572;49.540;11.932;2022-08-25T02:11:53;97064.22;;;14.82;100.00
11038;BME280;5572;49.540;11.932;2022-08-25T02:14:22;97033.88;;;14.89;100.00
11038;BME280;5572;49.540;11.932;2022-08-25T02:16:52;97006.06;;;14.92;100.00
11038;BME280;5572;49.540;11.932;2022-08-25T02:19:20;96992.97;;;14.67;100.00
11038;BME280;5572;49.540;11.932;2022-08-25T02:21:47;96998.00;;;14.73;100.00
11038;BME280;5572;49.540;11.932;2022-08-25T02:24:14;97016.94;;;14.78;100.00
11038;BME280;5572;49.540;11.932;2022-08-25T02:26:41;97035.53;;;14.76;100.00
11038;BME280;5572;49.540;11.932;2022-08-25T02:29:08;97072.22;;;14.65;100.00
11038;BME280;5572;49.540;11.932;2022-08-25T02:31:37;97099.91;;;14.67;100.00
11038;BME280;5572;49.540;11.932;2022-08-25T02:34:05;97106.25;;;14.63;100.00
11038;BME280;5572;49.540;11.932;2022-08-25T02:36:32;97113.28;;;14.51;100.00
11038;BME280;5572;49.540;11.932;2022-08-25T02:38:59;97124.09;;;14.56;100.00
11038;BME280;5572;49.540;11.932;2022-08-25T02:41:26;97127.22;;;14.49;100.00
11038;BME280;5572;49.540;11.932;2022-08-25T02:43:55;97128.44;;;14.57;100.00
11038;BME280;5572;49.540;11.932;2022-08-25T02:46:22;97151.31;;;14.69;100.00
11038;BME280;5572;49.540;11.932;2022-08-25T02:48:51;97172.88;;;14.65;100.00
11038;BME280;5572;49.540;11.932;2022-08-25T02:51:19;97167.94;;;14.67;100.00
11038;BME280;5572;49.540;11.932;2022-08-25T02:53:46;97236.06;;;14.63;100.00
11038;BME280;5572;49.540;11.932;2022-08-25T02:56:14;97269.50;;;14.63;100.00
11038;BME280;5572;49.540;11.932;2022-08-25T02:58:42;97279.66;;;14.58;100.00
11038;BME280;5572;49.540;11.932;2022-08-25T03:01:09;97277.56;;;14.55;100.00
11038;BME280;5572;49.540;11.932;2022-08-25T03:03:36;97270.44;;;14.40;100.00
11038;BME280;5572;49.540;11.932;2022-08-25T03:06:06;97275.22;;;14.48;100.00
11038;BME280;5572;49.540;11.932;2022-08-25T03:08:34;97274.47;;;14.43;100.00
11038;BME280;5572;49.540;11.932;2022-08-25T03:11:00;97289.69;;;14.44;100.00
11038;BME280;5572;49.540;11.932;2022-08-25T03:13:27;97323.59;;;14.51;100.00
11038;BME280;5572;49.540;11.932;2022-08-25T03:15:54;97344.91;;;14.63;100.00
11038;BME280;5572;49.540;11.932;2022-08-25T03:18:20;97338.34;;;14.63;100.00
11038;BME280;5572;49.540;11.932;2022-08-25T03:20:47;97327.47;;;14.45;100.00
11038;BME280;5572;49.540;11.932;2022-08-25T03:23:15;97351.91;;;14.50;100.00
11038;BME280;5572;49.540;11.932;2022-08-25T03:25:42;97388.00;;;14.56;100.00
11038;BME280;5572;49.540;11.932;2022-08-25T03:28:26;97475.28;;;14.59;100.00
11038;BME280;5572;49.540;11.932;2022-08-25T03:30:55;97487.09;;;14.50;100.00
11038;BME280;5572;49.540;11.932;2022-08-25T03:33:21;97475.44;;;14.49;100.00
11038;BME280;5572;49.540;11.932;2022-08-25T03:35:48;97443.00;;;14.53;100.00
11038;BME280;5572;49.540;11.932;2022-08-25T03:38:16;97403.72;;;14.40;100.00
11038;BME280;5572;49.540;11.932;2022-08-25T03:40:42;97363.59;;;14.32;100.00
11038;BME280;5572;49.540;11.932;2022-08-25T03:43:09;97345.78;;;14.40;100.00
11038;BME280;5572;49.540;11.932;2022-08-25T03:45:39;97338.72;;;14.39;100.00
11038;BME280;5572;49.540;11.932;2022-08-25T03:48:06;97324.94;;;14.17;100.00
11038;BME280;5572;49.540;11.932;2022-08-25T03:50:33;97336.97;;;14.29;100.00
11038;BME280;5572;49.540;11.932;2022-08-25T03:52:59;97391.00;;;14.36;100.00
11038;BME280;5572;49.540;11.932;2022-08-25T03:55:27;97453.09;;;14.52;100.00
11038;BME280;5572;49.540;11.932;2022-08-25T03:57:54;97468.41;;;14.43;100.00
11038;BME280;5572;49.540;11.932;2022-08-25T04:00:21;97583.19;;;14.22;100.00
11038;BME280;5572;49.540;11.932;2022-08-25T04:02:48;97494.88;;;14.14;100.00
11038;BME280;5572;49.540;11.932;2022-08-25T04:05:15;97450.97;;;14.26;100.00
11038;BME280;5572;49.540;11.932;2022-08-25T04:07:41;97412.16;;;14.39;100.00
11038;BME280;5572;49.540;11.932;2022-08-25T04:10:09;97352.03;;;14.22;100.00
11038;BME280;5572;49.540;11.932;2022-08-25T04:12:38;97285.03;;;14.12;100.00
11038;BME280;5572;49.540;11.932;2022-08-25T04:15:06;97276.81;;;14.49;100.00
11038;BME280;5572;49.540;11.932;2022-08-25T04:17:36;97288.81;;;14.48;100.00
11038;BME280;5572;49.540;11.932;2022-08-25T04:20:04;97253.31;;;14.40;100.00
11038;BME280;5572;49.540;11.932;2022-08-25T04:22:32;97209.19;;;14.43;100.00
11038;BME280;5572;49.540;11.932;2022-08-25T04:24:58;97184.56;;;14.34;100.00
11038;BME280;5572;49.540;11.932;2022-08-25T04:27:25;97162.41;;;14.27;100.00
11038;BME280;5572;49.540;11.932;2022-08-25T04:29:53;97197.06;;;14.35;100.00
11038;BME280;5572;49.540;11.932;2022-08-25T04:32:20;97220.50;;;14.50;100.00
11038;BME280;5572;49.540;11.932;2022-08-25T04:34:46;97214.81;;;14.33;100.00
11038;BME280;5572;49.540;11.932;2022-08-25T04:37:13;97183.56;;;14.30;100.00
11038;BME280;5572;49.540;11.932;2022-08-25T04:39:40;97149.59;;;14.28;100.00
11038;BME280;5572;49.540;11.932;2022-08-25T04:42:06;97145.78;;;14.29;100.00
11038;BME280;5572;49.540;11.932;2022-08-25T04:44:33;97146.50;;;14.34;100.00
11038;BME280;5572;49.540;11.932;2022-08-25T04:47:01;97146.28;;;14.31;100.00
11038;BME280;5572;49.540;11.932;2022-08-25T04:49:28;97130.81;;;14.45;100.00
11038;BME280;5572;49.540;11.932;2022-08-25T04:51:54;97111.41;;;14.51;100.00
11038;BME280;5572;49.540;11.932;2022-08-25T04:54:21;97077.44;;;14.62;100.00
11038;BME280;5572;49.540;11.932;2022-08-25T04:56:49;97042.25;;;14.79;100.00
11038;BME280;5572;49.540;11.932;2022-08-25T04:59:17;97016.94;;;14.78;100.00
11038;BME280;5572;49.540;11.932;2022-08-25T05:01:44;96974.91;;;14.84;100.00
11038;BME280;5572;49.540;11.932;2022-08-25T05:04:14;96931.28;;;14.76;100.00
11038;BME280;5572;49.540;11.932;2022-08-25T05:06:41;96929.28;;;14.68;100.00
11038;BME280;5572;49.540;11.932;2022-08-25T05:09:08;96936.50;;;14.86;100.00
11038;BME280;5572;49.540;11.932;2022-08-25T05:11:35;96945.97;;;14.88;100.00
11038;BME280;5572;49.540;11.932;2022-08-25T05:14:02;96949.09;;;14.95;100.00
11038;BME280;5572;49.540;11.932;2022-08-25T05:16:29;96932.28;;;15.15;100.00
11038;BME280;5572;49.540;11.932;2022-08-25T05:18:56;96867.38;;;15.31;100.00
11038;BME280;5572;49.540;11.932;2022-08-25T05:21:26;96827.13;;;15.28;100.00
11038;BME280;5572;49.540;11.932;2022-08-25T05:23:54;96767.16;;;15.58;100.00
11038;BME280;5572;49.540;11.932;2022-08-25T05:26:22;96727.13;;;15.67;100.00
11038;BME280;5572;49.540;11.932;2022-08-25T05:28:51;96667.34;;;15.70;100.00
11038;BME280;5572;49.540;11.932;2022-08-25T05:31:19;96602.72;;;15.71;100.00
11038;BME280;5572;49.540;11.932;2022-08-25T05:33:46;96538.53;;;15.99;100.00
11038;BME280;5572;49.540;11.932;2022-08-25T05:36:14;96488.63;;;16.15;100.00
11038;BME280;5572;49.540;11.932;2022-08-25T05:38:43;96438.19;;;16.38;100.00
11038;BME280;5572;49.540;11.932;2022-08-25T05:41:11;96419.34;;;16.45;100.00
11038;BME280;5572;49.540;11.932;2022-08-25T05:43:41;96377.06;;;16.59;100.00
11038;BME280;5572;49.540;11.932;2022-08-25T05:46:09;96325.53;;;16.78;100.00
11038;BME280;5572;49.540;11.932;2022-08-25T05:48:36;96252.91;;;16.98;100.00
11038;BME280;5572;49.540;11.932;2022-08-25T05:51:06;96159.16;;;17.06;100.00
11038;BME280;5572;49.540;11.932;2022-08-25T05:53:35;96070.22;;;17.28;100.00
11038;BME280;5572;49.540;11.932;2022-08-25T05:56:03;96014.06;;;17.43;100.00
11038;BME280;5572;49.540;11.932;2022-08-25T05:58:30;95973.31;;;17.65;100.00
11038;BME280;5572;49.540;11.932;2022-08-25T06:00:58;95947.38;;;17.87;100.00
11038;BME280;5572;49.540;11.932;2022-08-25T06:03:46;95942.09;;;17.94;100.00
11038;BME280;5572;49.540;11.932;2022-08-25T06:06:11;95947.75;;;18.16;100.00
11038;BME280;5572;49.540;11.932;2022-08-25T06:08:38;95943.66;;;18.37;100.00
11038;BME280;5572;49.540;11.932;2022-08-25T06:11:06;95930.31;;;18.51;100.00
11038;BME280;5572;49.540;11.932;2022-08-25T06:13:33;95904.00;;;18.62;100.00
11038;BME280;5572;49.540;11.932;2022-08-25T06:16:00;95862.19;;;18.81;100.00
11038;BME280;5572;49.540;11.932;2022-08-25T06:18:26;95810.44;;;18.95;100.00
11038;BME280;5572;49.540;11.932;2022-08-25T06:20:53;95772.84;;;19.10;100.00
11038;BME280;5572;49.540;11.932;2022-08-25T06:23:19;95689.50;;;19.11;100.00
11038;BME280;5572;49.540;11.932;2022-08-25T06:25:48;95625.00;;;19.17;100.00
11038;BME280;5572;49.540;11.932;2022-08-25T06:28:16;95588.44;;;19.32;100.00
11038;BME280;5572;49.540;11.932;2022-08-25T06:30:43;95531.47;;;19.45;100.00
11038;BME280;5572;49.540;11.932;2022-08-25T06:33:11;95477.72;;;19.95;100.00
11038;BME280;5572;49.540;11.932;2022-08-25T06:35:41;95442.44;;;19.97;100.00
11038;BME280;5572;49.540;11.932;2022-08-25T06:38:08;95405.72;;;20.49;100.00
11038;BME280;5572;49.540;11.932;2022-08-25T06:40:35;95381.69;;;20.82;100.00
11038;BME280;5572;49.540;11.932;2022-08-25T06:43:01;95358.25;;;21.02;100.00
11038;BME280;5572;49.540;11.932;2022-08-25T06:45:32;95389.56;;;21.55;100.00
11038;BME280;5572;49.540;11.932;2022-08-25T06:47:58;95450.97;;;21.12;100.00
11038;BME280;5572;49.540;11.932;2022-08-25T06:50:25;95472.97;;;21.69;100.00
11038;BME280;5572;49.540;11.932;2022-08-25T06:52:51;95580.97;;;22.30;100.00
11038;BME280;5572;49.540;11.932;2022-08-25T06:55:18;95774.41;;;21.34;100.00
11038;BME280;5572;49.540;11.932;2022-08-25T06:57:45;95793.59;;;21.63;100.00
11038;BME280;5572;49.540;11.932;2022-08-25T07:00:12;95850.53;;;22.89;100.00
11038;BME280;5572;49.540;11.932;2022-08-25T07:02:40;96139.44;;;23.96;100.00
11038;BME280;5572;49.540;11.932;2022-08-25T07:05:07;96333.06;;;24.31;100.00
11038;BME280;5572;49.540;11.932;2022-08-25T07:07:34;96749.44;;;24.49;100.00
11038;BME280;5572;49.540;11.932;2022-08-25T07:10:01;97002.88;;;24.86;100.00
11038;BME280;5572;49.540;11.932;2022-08-25T07:12:28;96749.25;;;24.90;100.00
11038;BME280;5572;49.540;11.932;2022-08-25T07:14:54;96698.72;;;25.29;100.00
11038;BME280;5572;49.540;11.932;2022-08-25T07:17:21;96714.28;;;24.75;100.00
11038;BME280;5572;49.540;11.932;2022-08-25T07:19:49;96626.31;;;25.71;100.00
11038;BME280;5572;49.540;11.932;2022-08-25T07:22:16;96580.50;;;24.54;100.00
11038;BME280;5572;49.540;11.932;2022-08-25T07:24:43;96590.16;;;24.37;100.00
11038;BME280;5572;49.540;11.932;2022-08-25T07:27:09;96560.53;;;24.38;100.00
11038;BME280;5572;49.540;11.932;2022-08-25T07:29:36;96501.47;;;24.49;100.00
11038;BME280;5572;49.540;11.932;2022-08-25T07:32:04;96463.88;;;25.35;100.00
11038;BME280;5572;49.540;11.932;2022-08-25T07:34:31;96458.31;;;25.96;100.00
11038;BME280;5572;49.540;11.932;2022-08-25T07:37:17;96454.44;;;24.89;100.00
11038;BME280;5572;49.540;11.932;2022-08-25T07:39:43;96467.75;;;25.20;100.00
11038;BME280;5572;49.540;11.932;2022-08-25T07:42:11;96461.91;;;26.00;100.00
11038;BME280;5572;49.540;11.932;2022-08-25T07:44:38;96472.38;;;24.62;100.00
11038;BME280;5572;49.540;11.932;2022-08-25T07:47:04;96527.19;;;22.69;100.00
11038;BME280;5572;49.540;11.932;2022-08-25T07:49:31;96582.75;;;22.93;100.00
11038;BME280;5572;49.540;11.932;2022-08-25T07:51:58;96597.28;;;23.09;100.00
11038;BME280;5572;49.540;11.932;2022-08-25T07:54:26;96632.41;;;24.09;100.00
11038;BME280;5572;49.540;11.932;2022-08-25T07:56:52;96614.34;;;23.41;100.00
11038;BME280;5572;49.540;11.932;2022-08-25T07:59:19;96611.72;;;24.58;100.00
11038;BME280;5572;49.540;11.932;2022-08-25T08:01:45;96587.19;;;24.24;100.00
11038;BME280;5572;49.540;11.932;2022-08-25T08:04:13;96601.66;;;23.62;100.00
11038;BME280;5572;49.540;11.932;2022-08-25T08:06:40;96617.75;;;23.79;100.00
11038;BME280;5572;49.540;11.932;2022-08-25T08:09:06;96617.63;;;24.53;100.00
11038;BME280;5572;49.540;11.932;2022-08-25T08:11:35;96609.06;;;24.65;100.00
11038;BME280;5572;49.540;11.932;2022-08-25T08:14:05;96602.59;;;24.50;100.00
11038;BME280;5572;49.540;11.932;2022-08-25T08:16:32;96623.19;;;24.89;100.00
11038;BME280;5572;49.540;11.932;2022-08-25T08:18:59;96609.47;;;24.67;100.00
11038;BME280;5572;49.540;11.932;2022-08-25T08:21:29;96626.47;;;25.02;100.00
11038;BME280;5572;49.540;11.932;2022-08-25T08:23:58;96650.00;;;24.56;100.00
11038;BME280;5572;49.540;11.932;2022-08-25T08:26:27;96658.31;;;24.01;100.00
11038;BME280;5572;49.540;11.932;2022-08-25T08:28:58;96679.53;;;24.78;100.00
11038;BME280;5572;49.540;11.932;2022-08-25T08:31:27;96661.63;;;24.39;100.00
11038;BME280;5572;49.540;11.932;2022-08-25T08:33:54;96691.22;;;24.64;100.00
11038;BME280;5572;49.540;11.932;2022-08-25T08:36:23;96663.03;;;24.85;100.00
11038;BME280;5572;49.540;11.932;2022-08-25T08:38:50;96652.56;;;24.71;100.00
11038;BME280;5572;49.540;11.932;2022-08-25T08:41:35;96592.31;;;24.87;100.00
11038;BME280;5572;49.540;11.932;2022-08-25T08:44:32;96595.31;;;24.72;100.00
11038;BME280;5572;49.540;11.932;2022-08-25T08:47:05;96607.19;;;24.76;100.00
11038;BME280;5572;49.540;11.932;2022-08-25T08:49:40;96623.16;;;24.53;100.00
11038;BME280;5572;49.540;11.932;2022-08-25T08:52:14;96680.34;;;24.78;100.00
11038;BME280;5572;49.540;11.932;2022-08-25T08:54:44;96664.69;;;24.93;100.00
11038;BME280;5572;49.540;11.932;2022-08-25T08:57:17;96636.97;;;25.65;100.00
11038;BME280;5572;49.540;11.932;2022-08-25T08:59:48;96620.06;;;26.41;100.00
11038;BME280;5572;49.540;11.932;2022-08-25T09:02:24;96459.66;;;26.40;100.00
11038;BME280;5572;49.540;11.932;2022-08-25T09:04:55;96396.56;;;25.99;100.00
11038;BME280;5572;49.540;11.932;2022-08-25T09:07:28;96415.91;;;25.88;100.00
11038;BME280;5572;49.540;11.932;2022-08-25T09:09:56;96425.41;;;25.91;100.00
11038;BME280;5572;49.540;11.932;2022-08-25T09:12:31;96415.13;;;25.84;100.00
11038;BME280;5572;49.540;11.932;2022-08-25T09:15:08;96429.84;;;26.13;100.00
11038;BME280;5572;49.540;11.932;2022-08-25T09:17:59;96236.97;;;25.59;100.00
11038;BME280;5572;49.540;11.932;2022-08-25T09:20:48;96314.59;;;25.84;100.00
11038;BME280;5572;49.540;11.932;2022-08-25T09:23:27;96311.00;;;25.76;100.00
11038;BME280;5572;49.540;11.932;2022-08-25T09:26:02;96282.53;;;26.87;100.00
11038;BME280;5572;49.540;11.932;2022-08-25T09:28:40;96280.22;;;26.65;100.00
11038;BME280;5572;49.540;11.932;2022-08-25T09:31:15;96191.47;;;27.50;100.00
11038;BME280;5572;49.540;11.932;2022-08-25T09:33:44;96119.09;;;26.00;100.00
11038;BME280;5572;49.540;11.932;2022-08-25T09:36:10;96220.03;;;25.96;100.00
11038;BME280;5572;49.540;11.932;2022-08-25T09:38:37;96079.91;;;26.02;100.00
11038;BME280;5572;49.540;11.932;2022-08-25T09:41:05;96014.66;;;26.79;100.00
11038;BME280;5572;49.540;11.932;2022-08-25T09:43:35;95804.53;;;26.46;100.00
11038;BME280;5572;49.540;11.932;2022-08-25T09:46:09;95784.59;;;27.02;100.00
11038;BME280;5572;49.540;11.932;2022-08-25T09:48:44;95575.94;;;28.09;100.00
11038;BME280;5572;49.540;11.932;2022-08-25T09:51:16;95426.91;;;27.76;100.00
11038;BME280;5572;49.540;11.932;2022-08-25T09:53:49;95313.38;;;27.59;100.00
11038;BME280;5572;49.540;11.932;2022-08-25T09:56:18;95474.88;;;28.58;100.00
11038;BME280;5572;49.540;11.932;2022-08-25T09:58:46;95001.91;;;27.12;100.00
11038;BME280;5572;49.540;11.932;2022-08-25T10:01:15;95026.16;;;27.08;100.00
11038;BME280;5572;49.540;11.932;2022-08-25T10:04:00;95164.25;;;26.39;100.00
11038;BME280;5572;49.540;11.932;2022-08-25T10:06:30;95145.59;;;27.21;100.00
11038;BME280;5572;49.540;11.932;2022-08-25T10:09:01;95056.94;;;26.40;100.00
11038;BME280;5572;49.540;11.932;2022-08-25T10:11:32;95240.19;;;26.45;100.00
11038;BME280;5572;49.540;11.932;2022-08-25T10:14:13;95123.38;;;25.75;100.00
11038;BME280;5572;49.540;11.932;2022-08-25T10:16:41;95202.84;;;25.51;100.00
11038;BME280;5572;49.540;11.932;2022-08-25T10:19:11;95266.22;;;25.72;100.00
11038;BME280;5572;49.540;11.932;2022-08-25T10:21:40;95426.22;;;25.91;100.00
11038;BME280;5572;49.540;11.932;2022-08-25T10:24:08;95542.47;;;26.35;100.00
11038;BME280;5572;49.540;11.932;2022-08-25T10:26:49;95418.47;;;25.76;100.00
11038;BME280;5572;49.540;11.932;2022-08-25T10:31:54;95605.38;;;26.75;100.00
11038;BME280;5572;49.540;11.932;2022-08-25T10:34:35;95547.47;;;27.06;100.00
11038;BME280;5572;49.540;11.932;2022-08-25T10:37:11;95260.50;;;26.62;100.00
11038;BME280;5572;49.540;11.932;2022-08-25T10:39:42;95207.75;;;26.42;100.00
11038;BME280;5572;49.540;11.932;2022-08-25T10:42:22;95268.38;;;26.40;100.00
11038;BME280;5572;49.540;11.932;2022-08-25T10:45:08;95050.25;;;26.76;100.00
11038;BME280;5572;49.540;11.932;2022-08-25T10:48:17;94982.47;;;26.42;100.00
11038;BME280;5572;49.540;11.932;2022-08-25T10:50:54;95126.47;;;26.26;100.00
11038;BME280;5572;49.540;11.932;2022-08-25T10:53:28;95004.75;;;26.15;100.00
11038;BME280;5572;49.540;11.932;2022-08-25T10:56:06;94996.25;;;26.07;100.00
11038;BME280;5572;49.540;11.932;2022-08-25T10:58:54;94815.06;;;26.55;100.00
11038;BME280;5572;49.540;11.932;2022-08-25T11:01:32;94706.13;;;26.71;100.00
11038;BME280;5572;49.540;11.932;2022-08-25T11:04:04;94528.88;;;27.17;100.00
11038;BME280;5572;49.540;11.932;2022-08-25T11:06:39;94464.19;;;27.79;100.00
11038;BME280;5572;49.540;11.932;2022-08-25T11:09:11;94218.88;;;27.60;100.00
11038;BME280;5572;49.540;11.932;2022-08-25T11:11:42;94455.44;;;28.44;100.00
11038;BME280;5572;49.540;11.932;2022-08-25T11:14:16;94278.59;;;28.47;100.00
11038;BME280;5572;49.540;11.932;2022-08-25T11:16:50;94063.44;;;28.80;100.00
11038;BME280;5572;49.540;11.932;2022-08-25T11:19:21;93940.50;;;28.40;100.00
11038;BME280;5572;49.540;11.932;2022-08-25T11:21:56;93905.44;;;28.52;100.00
11038;BME280;5572;49.540;11.932;2022-08-25T11:24:35;93992.81;;;28.78;100.00
11038;BME280;5572;49.540;11.932;2022-08-25T11:27:10;93892.22;;;28.88;100.00
11038;BME280;5572;49.540;11.932;2022-08-25T11:29:40;94196.06;;;29.01;100.00
11038;BME280;5572;49.540;11.932;2022-08-25T11:32:09;94111.22;;;28.03;100.00
11038;BME280;5572;49.540;11.932;2022-08-25T11:34:36;94441.34;;;28.17;100.00
11038;BME280;5572;49.540;11.932;2022-08-25T11:37:10;94298.31;;;27.24;100.00
11038;BME280;5572;49.540;11.932;2022-08-25T11:42:41;94521.47;;;26.86;100.00
11038;BME280;5572;49.540;11.932;2022-08-25T11:45:22;94754.13;;;26.84;100.00
11038;BME280;5572;49.540;11.932;2022-08-25T11:48:09;94526.13;;;26.64;100.00
11038;BME280;5572;49.540;11.932;2022-08-25T11:50:55;94850.25;;;27.06;100.00
11038;BME280;5572;49.540;11.932;2022-08-25T11:53:26;94644.69;;;26.72;100.00
11038;BME280;5572;49.540;11.932;2022-08-25T11:55:56;94778.13;;;26.90;100.00
11038;BME280;5572;49.540;11.932;2022-08-25T11:58:32;94653.41;;;26.42;100.00
11038;BME280;5572;49.540;11.932;2022-08-25T12:01:01;94736.84;;;26.92;100.00
11038;BME280;5572;49.540;11.932;2022-08-25T12:03:50;94834.59;;;27.56;100.00
11038;BME280;5572;49.540;11.932;2022-08-25T12:06:23;94615.06;;;27.76;100.00
11038;BME280;5572;49.540;11.932;2022-08-25T12:11:47;94411.22;;;27.27;100.00
11038;BME280;5572;49.540;11.932;2022-08-25T12:14:34;94474.03;;;27.21;100.00
11038;BME280;5572;49.540;11.932;2022-08-25T12:17:11;94443.72;;;27.26;100.00
11038;BME280;5572;49.540;11.932;2022-08-25T12:19:52;94782.97;;;27.59;100.00
11038;BME280;5572;49.540;11.932;2022-08-25T12:22:44;94658.78;;;28.09;100.00
11038;BME280;5572;49.540;11.932;2022-08-25T12:25:29;94487.53;;;27.69;100.00
11038;BME280;5572;49.540;11.932;2022-08-25T12:28:04;94470.66;;;27.51;100.00
11038;BME280;5572;49.540;11.932;2022-08-25T12:30:41;94447.94;;;27.18;100.00
11038;BME280;5572;49.540;11.932;2022-08-25T12:33:17;94655.16;;;27.75;100.00
11038;BME280;5572;49.540;11.932;2022-08-25T12:35:54;94536.31;;;27.20;100.00
11038;BME280;5572;49.540;11.932;2022-08-25T12:38:28;94445.63;;;28.09;100.00
11038;BME280;5572;49.540;11.932;2022-08-25T12:41:00;94273.03;;;28.86;100.00
11038;BME280;5572;49.540;11.932;2022-08-25T12:43:30;94223.50;;;28.72;100.00
11038;BME280;5572;49.540;11.932;2022-08-25T12:46:32;94202.91;;;28.34;100.00
11038;BME280;5572;49.540;11.932;2022-08-25T12:49:00;94105.13;;;28.35;100.00
11038;BME280;5572;49.540;11.932;2022-08-25T12:51:44;94291.44;;;29.01;100.00
11038;BME280;5572;49.540;11.932;2022-08-25T12:54:15;94092.34;;;28.65;100.00
11038;BME280;5572;49.540;11.932;2022-08-25T12:56:48;94065.59;;;28.94;100.00
11038;BME280;5572;49.540;11.932;2022-08-25T12:59:19;94055.88;;;28.72;100.00
11038;BME280;5572;49.540;11.932;2022-08-25T13:02:05;94147.81;;;27.41;100.00
11038;BME280;5572;49.540;11.932;2022-08-25T13:05:02;94490.66;;;26.96;100.00
11038;BME280;5572;49.540;11.932;2022-08-25T13:07:55;94576.50;;;27.28;100.00
11038;BME280;5572;49.540;11.932;2022-08-25T13:10:32;94473.91;;;27.37;100.00
11038;BME280;5572;49.540;11.932;2022-08-25T13:13:09;94720.06;;;27.93;100.00
11038;BME280;5572;49.540;11.932;2022-08-25T13:15:42;94510.72;;;28.42;100.00